sensor_id;sensor_type;location;lat;lon;timestamp;pressure;altitude;pressure_sealevel;temperature
15607;BMP180;7865;50.918;4.510;2023-07-22T00:03:41;100945.00;;;14.30
15607;BMP180;7865;50.918;4.510;2023-07-22T00:08:43;100943.00;;;14.50
15607;BMP180;7865;50.918;4.510;2023-07-22T00:13:44;100944.00;;;14.80
15607;BMP180;7865;50.918;4.510;2023-07-22T00:18:46;100942.00;;;15.00
15607;BMP180;7865;50.918;4.510;2023-07-22T00:23:48;100941.00;;;15.10
15607;BMP180;7865;50.918;4.510;2023-07-22T00:28:49;100935.00;;;15.10
15607;BMP180;7865;50.918;4.510;2023-07-22T00:33:51;100935.00;;;15.00
15607;BMP180;7865;50.918;4.510;2023-07-22T00:38:52;100931.00;;;14.90
15607;BMP180;7865;50.918;4.510;2023-07-22T00:43:54;100937.00;;;15.00
15607;BMP180;7865;50.918;4.510;2023-07-22T00:48:56;100933.00;;;15.10
15607;BMP180;7865;50.918;4.510;2023-07-22T00:53:57;100935.00;;;15.20
15607;BMP180;7865;50.918;4.510;2023-07-22T00:58:59;100929.00;;;15.20
15607;BMP180;7865;50.918;4.510;2023-07-22T01:04:01;100933.00;;;15.20
15607;BMP180;7865;50.918;4.510;2023-07-22T01:15:34;100921.00;;;15.10
15607;BMP180;7865;50.918;4.510;2023-07-22T01:20:36;100926.00;;;15.10
15607;BMP180;7865;50.918;4.510;2023-07-22T01:25:57;100912.00;;;15.10
15607;BMP180;7865;50.918;4.510;2023-07-22T01:30:59;100917.00;;;15.10
15607;BMP180;7865;50.918;4.510;2023-07-22T01:36:01;100918.00;;;15.20
15607;BMP180;7865;50.918;4.510;2023-07-22T01:41:03;100918.00;;;15.20
15607;BMP180;7865;50.918;4.510;2023-07-22T01:46:04;100919.00;;;15.00
15607;BMP180;7865;50.918;4.510;2023-07-22T01:51:05;100913.00;;;14.90
15607;BMP180;7865;50.918;4.510;2023-07-22T01:56:07;100910.00;;;14.70
15607;BMP180;7865;50.918;4.510;2023-07-22T02:01:08;100906.00;;;14.50
15607;BMP180;7865;50.918;4.510;2023-07-22T02:06:10;100901.00;;;14.40
15607;BMP180;7865;50.918;4.510;2023-07-22T02:11:12;100907.00;;;14.30
15607;BMP180;7865;50.918;4.510;2023-07-22T02:16:13;100902.00;;;14.20
15607;BMP180;7865;50.918;4.510;2023-07-22T02:21:15;100899.00;;;14.10
15607;BMP180;7865;50.918;4.510;2023-07-22T02:26:16;100897.00;;;14.00
15607;BMP180;7865;50.918;4.510;2023-07-22T02:31:17;100902.00;;;13.90
15607;BMP180;7865;50.918;4.510;2023-07-22T02:36:19;100899.00;;;13.80
15607;BMP180;7865;50.918;4.510;2023-07-22T02:41:20;100898.00;;;13.80
15607;BMP180;7865;50.918;4.510;2023-07-22T02:46:23;100886.00;;;13.80
15607;BMP180;7865;50.918;4.510;2023-07-22T02:51:24;100893.00;;;13.70
15607;BMP180;7865;50.918;4.510;2023-07-22T02:56:26;100883.00;;;13.70
15607;BMP180;7865;50.918;4.510;2023-07-22T03:01:28;100891.00;;;13.60
15607;BMP180;7865;50.918;4.510;2023-07-22T03:06:30;100895.00;;;13.60
15607;BMP180;7865;50.918;4.510;2023-07-22T03:11:32;100902.00;;;13.50
15607;BMP180;7865;50.918;4.510;2023-07-22T03:16:34;100903.00;;;13.50
15607;BMP180;7865;50.918;4.510;2023-07-22T03:21:35;100907.00;;;13.40
15607;BMP180;7865;50.918;4.510;2023-07-22T03:26:37;100903.00;;;13.40
15607;BMP180;7865;50.918;4.510;2023-07-22T03:31:38;100896.00;;;13.30
15607;BMP180;7865;50.918;4.510;2023-07-22T03:36:40;100909.00;;;13.10
15607;BMP180;7865;50.918;4.510;2023-07-22T03:41:41;100913.00;;;13.10
15607;BMP180;7865;50.918;4.510;2023-07-22T03:46:43;100910.00;;;13.00
15607;BMP180;7865;50.918;4.510;2023-07-22T03:51:44;100904.00;;;12.90
15607;BMP180;7865;50.918;4.510;2023-07-22T03:56:45;100907.00;;;12.90
15607;BMP180;7865;50.918;4.510;2023-07-22T04:01:47;100911.00;;;12.90
15607;BMP180;7865;50.918;4.510;2023-07-22T04:06:48;100915.00;;;12.90
15607;BMP180;7865;50.918;4.510;2023-07-22T04:11:50;100917.00;;;12.90
15607;BMP180;7865;50.918;4.510;2023-07-22T04:16:51;100923.00;;;13.00
15607;BMP180;7865;50.918;4.510;2023-07-22T04:21:53;100932.00;;;13.10
15607;BMP180;7865;50.918;4.510;2023-07-22T04:26:56;100926.00;;;13.30
15607;BMP180;7865;50.918;4.510;2023-07-22T04:32:01;100917.00;;;13.60
15607;BMP180;7865;50.918;4.510;2023-07-22T04:37:02;100918.00;;;13.80
15607;BMP180;7865;50.918;4.510;2023-07-22T04:42:04;100927.00;;;14.10
15607;BMP180;7865;50.918;4.510;2023-07-22T04:47:05;100923.00;;;14.30
15607;BMP180;7865;50.918;4.510;2023-07-22T04:52:07;100937.00;;;14.60
15607;BMP180;7865;50.918;4.510;2023-07-22T04:57:09;100932.00;;;14.70
15607;BMP180;7865;50.918;4.510;2023-07-22T05:02:10;100926.00;;;14.70
15607;BMP180;7865;50.918;4.510;2023-07-22T05:07:11;100917.00;;;14.70
15607;BMP180;7865;50.918;4.510;2023-07-22T05:12:13;100921.00;;;14.60
15607;BMP180;7865;50.918;4.510;2023-07-22T05:17:15;100933.00;;;14.70
15607;BMP180;7865;50.918;4.510;2023-07-22T05:22:16;100918.00;;;14.70
15607;BMP180;7865;50.918;4.510;2023-07-22T05:27:18;100928.00;;;14.80
15607;BMP180;7865;50.918;4.510;2023-07-22T05:32:19;100930.00;;;15.10
15607;BMP180;7865;50.918;4.510;2023-07-22T05:37:34;100938.00;;;15.50
15607;BMP180;7865;50.918;4.510;2023-07-22T05:42:35;100927.00;;;15.90
15607;BMP180;7865;50.918;4.510;2023-07-22T05:47:37;100929.00;;;16.40
15607;BMP180;7865;50.918;4.510;2023-07-22T05:52:38;100917.00;;;17.30
15607;BMP180;7865;50.918;4.510;2023-07-22T05:57:40;100923.00;;;18.20
15607;BMP180;7865;50.918;4.510;2023-07-22T06:02:42;100911.00;;;18.50
15607;BMP180;7865;50.918;4.510;2023-07-22T06:07:43;100909.00;;;19.10
15607;BMP180;7865;50.918;4.510;2023-07-22T06:12:45;100916.00;;;19.70
15607;BMP180;7865;50.918;4.510;2023-07-22T06:17:49;100914.00;;;20.20
15607;BMP180;7865;50.918;4.510;2023-07-22T06:22:50;100906.00;;;20.50
15607;BMP180;7865;50.918;4.510;2023-07-22T06:27:51;100914.00;;;20.30
15607;BMP180;7865;50.918;4.510;2023-07-22T06:32:55;100915.00;;;19.80
15607;BMP180;7865;50.918;4.510;2023-07-22T06:37:56;100912.00;;;19.50
15607;BMP180;7865;50.918;4.510;2023-07-22T06:42:57;100917.00;;;19.20
15607;BMP180;7865;50.918;4.510;2023-07-22T06:47:59;100915.00;;;19.20
15607;BMP180;7865;50.918;4.510;2023-07-22T06:53:00;100911.00;;;19.30
15607;BMP180;7865;50.918;4.510;2023-07-22T06:58:02;100913.00;;;19.30
15607;BMP180;7865;50.918;4.510;2023-07-22T07:03:04;100903.00;;;19.40
15607;BMP180;7865;50.918;4.510;2023-07-22T07:08:05;100908.00;;;19.40
15607;BMP180;7865;50.918;4.510;2023-07-22T07:13:07;100907.00;;;19.50
15607;BMP180;7865;50.918;4.510;2023-07-22T07:18:08;100895.00;;;19.60
15607;BMP180;7865;50.918;4.510;2023-07-22T07:23:09;100894.00;;;20.30
15607;BMP180;7865;50.918;4.510;2023-07-22T07:28:11;100896.00;;;20.80
15607;BMP180;7865;50.918;4.510;2023-07-22T07:33:14;100905.00;;;21.30
15607;BMP180;7865;50.918;4.510;2023-07-22T07:38:15;100901.00;;;21.10
15607;BMP180;7865;50.918;4.510;2023-07-22T07:43:17;100911.00;;;21.10
15607;BMP180;7865;50.918;4.510;2023-07-22T07:48:18;100912.00;;;21.00
15607;BMP180;7865;50.918;4.510;2023-07-22T07:53:20;100921.00;;;20.10
15607;BMP180;7865;50.918;4.510;2023-07-22T07:58:21;100923.00;;;19.30
15607;BMP180;7865;50.918;4.510;2023-07-22T08:03:23;100910.00;;;18.80
15607;BMP180;7865;50.918;4.510;2023-07-22T08:08:24;100907.00;;;18.90
15607;BMP180;7865;50.918;4.510;2023-07-22T08:13:26;100908.00;;;19.80
15607;BMP180;7865;50.918;4.510;2023-07-22T08:18:29;100896.00;;;20.90
15607;BMP180;7865;50.918;4.510;2023-07-22T08:23:32;100894.00;;;21.60
15607;BMP180;7865;50.918;4.510;2023-07-22T08:28:33;100900.00;;;22.10
15607;BMP180;7865;50.918;4.510;2023-07-22T08:33:35;100902.00;;;22.40
15607;BMP180;7865;50.918;4.510;2023-07-22T08:38:42;100897.00;;;21.90
15607;BMP180;7865;50.918;4.510;2023-07-22T08:43:45;100907.00;;;21.80
15607;BMP180;7865;50.918;4.510;2023-07-22T08:48:53;100897.00;;;22.60
15607;BMP180;7865;50.918;4.510;2023-07-22T08:53:56;100898.00;;;22.90
15607;BMP180;7865;50.918;4.510;2023-07-22T08:59:12;100911.00;;;23.10
15607;BMP180;7865;50.918;4.510;2023-07-22T09:04:15;100900.00;;;23.20
15607;BMP180;7865;50.918;4.510;2023-07-22T09:09:17;100902.00;;;23.60
15607;BMP180;7865;50.918;4.510;2023-07-22T09:14:19;100895.00;;;24.00
15607;BMP180;7865;50.918;4.510;2023-07-22T09:19:37;100892.00;;;24.80
15607;BMP180;7865;50.918;4.510;2023-07-22T09:24:38;100903.00;;;25.00
15607;BMP180;7865;50.918;4.510;2023-07-22T09:29:39;100896.00;;;26.30
15607;BMP180;7865;50.918;4.510;2023-07-22T09:34:56;100888.00;;;27.30
15607;BMP180;7865;50.918;4.510;2023-07-22T09:39:58;100890.00;;;28.10
15607;BMP180;7865;50.918;4.510;2023-07-22T09:45:00;100875.00;;;29.00
15607;BMP180;7865;50.918;4.510;2023-07-22T09:50:01;100880.00;;;29.10
15607;BMP180;7865;50.918;4.510;2023-07-22T09:55:03;100871.00;;;29.20
15607;BMP180;7865;50.918;4.510;2023-07-22T10:00:05;100864.00;;;29.30
15607;BMP180;7865;50.918;4.510;2023-07-22T10:05:17;100877.00;;;28.90
15607;BMP180;7865;50.918;4.510;2023-07-22T10:10:28;100862.00;;;28.80
15607;BMP180;7865;50.918;4.510;2023-07-22T10:15:32;100874.00;;;29.50
15607;BMP180;7865;50.918;4.510;2023-07-22T10:20:35;100872.00;;;29.40
15607;BMP180;7865;50.918;4.510;2023-07-22T10:25:38;100867.00;;;29.10
15607;BMP180;7865;50.918;4.510;2023-07-22T10:30:40;100854.00;;;29.60
15607;BMP180;7865;50.918;4.510;2023-07-22T10:35:43;100852.00;;;29.10
15607;BMP180;7865;50.918;4.510;2023-07-22T10:40:55;100845.00;;;28.90
15607;BMP180;7865;50.918;4.510;2023-07-22T10:45:58;100849.00;;;30.00
15607;BMP180;7865;50.918;4.510;2023-07-22T10:51:11;100850.00;;;30.70
15607;BMP180;7865;50.918;4.510;2023-07-22T10:56:16;100833.00;;;30.40
15607;BMP180;7865;50.918;4.510;2023-07-22T11:06:27;100826.00;;;31.50
15607;BMP180;7865;50.918;4.510;2023-07-22T11:11:40;100844.00;;;31.90
15607;BMP180;7865;50.918;4.510;2023-07-22T11:16:44;100849.00;;;30.70
15607;BMP180;7865;50.918;4.510;2023-07-22T11:21:46;100835.00;;;29.10
15607;BMP180;7865;50.918;4.510;2023-07-22T11:26:48;100839.00;;;28.00
15607;BMP180;7865;50.918;4.510;2023-07-22T11:31:51;100808.00;;;28.10
15607;BMP180;7865;50.918;4.510;2023-07-22T11:36:53;100825.00;;;27.90
15607;BMP180;7865;50.918;4.510;2023-07-22T11:41:55;100811.00;;;28.20
15607;BMP180;7865;50.918;4.510;2023-07-22T11:47:04;100798.00;;;28.90
15607;BMP180;7865;50.918;4.510;2023-07-22T11:52:10;100799.00;;;28.00
15607;BMP180;7865;50.918;4.510;2023-07-22T11:57:16;100797.00;;;29.30
15607;BMP180;7865;50.918;4.510;2023-07-22T12:02:25;100790.00;;;30.30
15607;BMP180;7865;50.918;4.510;2023-07-22T12:07:35;100801.00;;;29.30
15607;BMP180;7865;50.918;4.510;2023-07-22T12:12:47;100793.00;;;28.70
15607;BMP180;7865;50.918;4.510;2023-07-22T12:18:10;100787.00;;;28.80
15607;BMP180;7865;50.918;4.510;2023-07-22T12:23:11;100796.00;;;28.90
15607;BMP180;7865;50.918;4.510;2023-07-22T12:28:12;100789.00;;;28.90
15607;BMP180;7865;50.918;4.510;2023-07-22T12:33:14;100789.00;;;28.70
15607;BMP180;7865;50.918;4.510;2023-07-22T12:38:16;100784.00;;;29.80
15607;BMP180;7865;50.918;4.510;2023-07-22T12:43:17;100778.00;;;28.90
15607;BMP180;7865;50.918;4.510;2023-07-22T12:48:18;100781.00;;;29.70
15607;BMP180;7865;50.918;4.510;2023-07-22T12:53:21;100770.00;;;30.10
15607;BMP180;7865;50.918;4.510;2023-07-22T12:58:22;100772.00;;;30.40
15607;BMP180;7865;50.918;4.510;2023-07-22T13:03:23;100755.00;;;31.00
15607;BMP180;7865;50.918;4.510;2023-07-22T13:08:25;100757.00;;;30.40
15607;BMP180;7865;50.918;4.510;2023-07-22T13:13:26;100759.00;;;30.00
15607;BMP180;7865;50.918;4.510;2023-07-22T13:18:28;100770.00;;;28.40
15607;BMP180;7865;50.918;4.510;2023-07-22T13:23:29;100763.00;;;27.90
15607;BMP180;7865;50.918;4.510;2023-07-22T13:28:30;100755.00;;;27.90
15607;BMP180;7865;50.918;4.510;2023-07-22T13:33:32;100753.00;;;27.70
15607;BMP180;7865;50.918;4.510;2023-07-22T13:38:33;100747.00;;;27.70
15607;BMP180;7865;50.918;4.510;2023-07-22T13:43:34;100756.00;;;27.80
15607;BMP180;7865;50.918;4.510;2023-07-22T13:48:36;100757.00;;;27.80
15607;BMP180;7865;50.918;4.510;2023-07-22T13:53:37;100758.00;;;27.20
15607;BMP180;7865;50.918;4.510;2023-07-22T13:58:38;100754.00;;;26.00
15607;BMP180;7865;50.918;4.510;2023-07-22T14:03:40;100757.00;;;25.10
15607;BMP180;7865;50.918;4.510;2023-07-22T14:08:41;100756.00;;;24.20
15607;BMP180;7865;50.918;4.510;2023-07-22T14:13:43;100755.00;;;23.40
15607;BMP180;7865;50.918;4.510;2023-07-22T14:18:44;100762.00;;;23.10
15607;BMP180;7865;50.918;4.510;2023-07-22T14:23:46;100761.00;;;22.90
15607;BMP180;7865;50.918;4.510;2023-07-22T14:28:48;100751.00;;;22.60
15607;BMP180;7865;50.918;4.510;2023-07-22T14:33:49;100750.00;;;22.40
15607;BMP180;7865;50.918;4.510;2023-07-22T14:38:51;100740.00;;;22.50
15607;BMP180;7865;50.918;4.510;2023-07-22T14:43:52;100743.00;;;22.70
15607;BMP180;7865;50.918;4.510;2023-07-22T14:48:54;100736.00;;;23.40
15607;BMP180;7865;50.918;4.510;2023-07-22T14:53:55;100727.00;;;24.60
15607;BMP180;7865;50.918;4.510;2023-07-22T14:58:57;100737.00;;;24.80
15607;BMP180;7865;50.918;4.510;2023-07-22T15:03:58;100727.00;;;24.90
15607;BMP180;7865;50.918;4.510;2023-07-22T15:09:01;100742.00;;;25.50
15607;BMP180;7865;50.918;4.510;2023-07-22T15:14:06;100738.00;;;25.70
15607;BMP180;7865;50.918;4.510;2023-07-22T15:19:07;100733.00;;;25.90
15607;BMP180;7865;50.918;4.510;2023-07-22T15:24:09;100735.00;;;25.70
15607;BMP180;7865;50.918;4.510;2023-07-22T15:29:10;100728.00;;;25.50
15607;BMP180;7865;50.918;4.510;2023-07-22T15:34:12;100736.00;;;25.00
15607;BMP180;7865;50.918;4.510;2023-07-22T15:39:13;100733.00;;;24.70
15607;BMP180;7865;50.918;4.510;2023-07-22T15:44:15;100727.00;;;24.20
15607;BMP180;7865;50.918;4.510;2023-07-22T15:49:16;100716.00;;;24.10
15607;BMP180;7865;50.918;4.510;2023-07-22T15:54:17;100701.00;;;24.20
15607;BMP180;7865;50.918;4.510;2023-07-22T15:59:20;100711.00;;;23.90
15607;BMP180;7865;50.918;4.510;2023-07-22T16:04:22;100701.00;;;23.70
15607;BMP180;7865;50.918;4.510;2023-07-22T16:09:23;100706.00;;;23.60
15607;BMP180;7865;50.918;4.510;2023-07-22T16:14:24;100696.00;;;23.20
15607;BMP180;7865;50.918;4.510;2023-07-22T16:19:26;100690.00;;;22.80
15607;BMP180;7865;50.918;4.510;2023-07-22T16:24:27;100686.00;;;22.50
15607;BMP180;7865;50.918;4.510;2023-07-22T16:29:29;100681.00;;;22.50
15607;BMP180;7865;50.918;4.510;2023-07-22T16:34:30;100674.00;;;22.70
15607;BMP180;7865;50.918;4.510;2023-07-22T16:39:31;100673.00;;;22.90
15607;BMP180;7865;50.918;4.510;2023-07-22T16:44:33;100677.00;;;23.30
15607;BMP180;7865;50.918;4.510;2023-07-22T16:49:34;100672.00;;;23.30
15607;BMP180;7865;50.918;4.510;2023-07-22T16:54:36;100670.00;;;23.30
15607;BMP180;7865;50.918;4.510;2023-07-22T16:59:37;100663.00;;;23.10
15607;BMP180;7865;50.918;4.510;2023-07-22T17:04:38;100668.00;;;22.60
15607;BMP180;7865;50.918;4.510;2023-07-22T17:09:39;100656.00;;;22.40
15607;BMP180;7865;50.918;4.510;2023-07-22T17:14:41;100643.00;;;22.40
15607;BMP180;7865;50.918;4.510;2023-07-22T17:19:42;100638.00;;;22.60
15607;BMP180;7865;50.918;4.510;2023-07-22T17:24:43;100635.00;;;22.50
15607;BMP180;7865;50.918;4.510;2023-07-22T17:29:45;100636.00;;;22.30
15607;BMP180;7865;50.918;4.510;2023-07-22T17:34:46;100624.00;;;22.20
15607;BMP180;7865;50.918;4.510;2023-07-22T17:39:48;100623.00;;;22.00
15607;BMP180;7865;50.918;4.510;2023-07-22T17:44:49;100615.00;;;21.80
15607;BMP180;7865;50.918;4.510;2023-07-22T17:49:51;100610.00;;;21.70
15607;BMP180;7865;50.918;4.510;2023-07-22T17:54:52;100611.00;;;21.70
15607;BMP180;7865;50.918;4.510;2023-07-22T17:59:54;100602.00;;;21.80
15607;BMP180;7865;50.918;4.510;2023-07-22T18:04:55;100606.00;;;21.90
15607;BMP180;7865;50.918;4.510;2023-07-22T18:09:56;100593.00;;;21.90
15607;BMP180;7865;50.918;4.510;2023-07-22T18:14:58;100589.00;;;21.80
15607;BMP180;7865;50.918;4.510;2023-07-22T18:19:59;100587.00;;;21.70
15607;BMP180;7865;50.918;4.510;2023-07-22T18:25:01;100582.00;;;21.50
15607;BMP180;7865;50.918;4.510;2023-07-22T18:30:03;100578.00;;;21.40
15607;BMP180;7865;50.918;4.510;2023-07-22T18:35:05;100576.00;;;21.20
15607;BMP180;7865;50.918;4.510;2023-07-22T18:40:07;100574.00;;;21.10
15607;BMP180;7865;50.918;4.510;2023-07-22T18:45:09;100566.00;;;21.00
15607;BMP180;7865;50.918;4.510;2023-07-22T18:50:12;100577.00;;;20.80
15607;BMP180;7865;50.918;4.510;2023-07-22T18:55:13;100577.00;;;20.70
15607;BMP180;7865;50.918;4.510;2023-07-22T19:00:16;100564.00;;;20.70
15607;BMP180;7865;50.918;4.510;2023-07-22T19:05:18;100563.00;;;20.60
15607;BMP180;7865;50.918;4.510;2023-07-22T19:10:19;100561.00;;;20.50
15607;BMP180;7865;50.918;4.510;2023-07-22T19:15:20;100547.00;;;20.40
15607;BMP180;7865;50.918;4.510;2023-07-22T19:20:22;100558.00;;;20.30
15607;BMP180;7865;50.918;4.510;2023-07-22T19:25:23;100552.00;;;20.20
15607;BMP180;7865;50.918;4.510;2023-07-22T19:30:25;100548.00;;;20.10
15607;BMP180;7865;50.918;4.510;2023-07-22T19:35:26;100559.00;;;20.00
15607;BMP180;7865;50.918;4.510;2023-07-22T19:40:30;100558.00;;;19.90
15607;BMP180;7865;50.918;4.510;2023-07-22T19:45:32;100557.00;;;19.80
15607;BMP180;7865;50.918;4.510;2023-07-22T19:50:34;100557.00;;;19.70
15607;BMP180;7865;50.918;4.510;2023-07-22T19:55:37;100561.00;;;19.50
15607;BMP180;7865;50.918;4.510;2023-07-22T20:00:38;100563.00;;;19.20
15607;BMP180;7865;50.918;4.510;2023-07-22T20:05:40;100573.00;;;19.10
15607;BMP180;7865;50.918;4.510;2023-07-22T20:10:42;100580.00;;;19.00
15607;BMP180;7865;50.918;4.510;2023-07-22T20:15:43;100587.00;;;18.90
15607;BMP180;7865;50.918;4.510;2023-07-22T20:20:45;100588.00;;;18.80
15607;BMP180;7865;50.918;4.510;2023-07-22T20:25:46;100588.00;;;18.60
15607;BMP180;7865;50.918;4.510;2023-07-22T20:30:48;100591.00;;;18.30
15607;BMP180;7865;50.918;4.510;2023-07-22T20:35:54;100591.00;;;18.00
15607;BMP180;7865;50.918;4.510;2023-07-22T20:40:55;100589.00;;;17.90
15607;BMP180;7865;50.918;4.510;2023-07-22T20:46:03;100573.00;;;17.80
15607;BMP180;7865;50.918;4.510;2023-07-22T20:51:05;100577.00;;;17.80
15607;BMP180;7865;50.918;4.510;2023-07-22T20:56:07;100570.00;;;17.80
15607;BMP180;7865;50.918;4.510;2023-07-22T21:01:08;100566.00;;;17.70
15607;BMP180;7865;50.918;4.510;2023-07-22T21:06:09;100569.00;;;17.70
15607;BMP180;7865;50.918;4.510;2023-07-22T21:11:11;100567.00;;;17.60
15607;BMP180;7865;50.918;4.510;2023-07-22T21:16:12;100557.00;;;17.60
15607;BMP180;7865;50.918;4.510;2023-07-22T21:21:14;100551.00;;;17.60
15607;BMP180;7865;50.918;4.510;2023-07-22T21:26:17;100555.00;;;17.60
15607;BMP180;7865;50.918;4.510;2023-07-22T21:31:19;100546.00;;;17.60
15607;BMP180;7865;50.918;4.510;2023-07-22T21:36:20;100551.00;;;17.60
15607;BMP180;7865;50.918;4.510;2023-07-22T21:41:22;100541.00;;;17.50
15607;BMP180;7865;50.918;4.510;2023-07-22T21:46:23;100529.00;;;17.40
15607;BMP180;7865;50.918;4.510;2023-07-22T21:51:25;100526.00;;;17.40
15607;BMP180;7865;50.918;4.510;2023-07-22T21:56:27;100515.00;;;17.30
15607;BMP180;7865;50.918;4.510;2023-07-22T22:01:28;100509.00;;;17.20
15607;BMP180;7865;50.918;4.510;2023-07-22T22:06:30;100506.00;;;17.20
15607;BMP180;7865;50.918;4.510;2023-07-22T22:11:31;100504.00;;;17.10
15607;BMP180;7865;50.918;4.510;2023-07-22T22:16:34;100495.00;;;17.10
15607;BMP180;7865;50.918;4.510;2023-07-22T22:21:35;100493.00;;;17.00
15607;BMP180;7865;50.918;4.510;2023-07-22T22:26:36;100490.00;;;17.00
15607;BMP180;7865;50.918;4.510;2023-07-22T22:31:38;100482.00;;;16.90
15607;BMP180;7865;50.918;4.510;2023-07-22T22:36:39;100484.00;;;17.00
15607;BMP180;7865;50.918;4.510;2023-07-22T22:41:40;100478.00;;;17.00
15607;BMP180;7865;50.918;4.510;2023-07-22T22:46:42;100470.00;;;17.00
15607;BMP180;7865;50.918;4.510;2023-07-22T22:51:45;100468.00;;;17.00
15607;BMP180;7865;50.918;4.510;2023-07-22T22:56:46;100467.00;;;17.00
15607;BMP180;7865;50.918;4.510;2023-07-22T23:01:48;100457.00;;;17.00
15607;BMP180;7865;50.918;4.510;2023-07-22T23:06:49;100454.00;;;16.90
15607;BMP180;7865;50.918;4.510;2023-07-22T23:11:50;100441.00;;;16.90
15607;BMP180;7865;50.918;4.510;2023-07-22T23:16:53;100441.00;;;16.90
15607;BMP180;7865;50.918;4.510;2023-07-22T23:21:54;100435.00;;;16.80
15607;BMP180;7865;50.918;4.510;2023-07-22T23:26:56;100438.00;;;16.80
15607;BMP180;7865;50.918;4.510;2023-07-22T23:31:58;100431.00;;;16.80
15607;BMP180;7865;50.918;4.510;2023-07-22T23:36:59;100428.00;;;16.70
15607;BMP180;7865;50.918;4.510;2023-07-22T23:42:00;100417.00;;;16.70
15607;BMP180;7865;50.918;4.510;2023-07-22T23:47:02;100414.00;;;16.60
15607;BMP180;7865;50.918;4.510;2023-07-22T23:52:04;100411.00;;;16.60
15607;BMP180;7865;50.918;4.510;2023-07-22T23:57:06;100403.00;;;16.60
